Darstellungsparameter: Aktuell verwendete Einstellungen:
Skalierung der Graphiken ... ?
xyx+y,   Skalierungsfaktor:      Skalierung: Modus: x, Faktor: 1
Darstellungszeitraum ... ?
Vom - - bis: - -   Zeitraum: 01.12.2009 - 06.12.2009
Min/Max/Avg-Anzeige ... ?
Zeige MMA aktuell
Zeige MMA Monat
Zeige MMA alles
Zeige --A aktuell
Zeige --A Monat
Zeige --A alles
Keine MMA-Anzeige
MMA:
Keine MMA-Graphiken
MMA-Basis: 01.12.2009 - 06.12.2009
Quicknavigation für Darstellung... ?
Tage:      1T, 2T, 3T, 5T -1T -2T -3T -5T +1T +2T +3T +5T
Wochen: 1W, 2W, 3W -1W -2W -3W +1W +2W +3W
Monate: 1M, 3M, 6M -1M -3M -6M +1M +3M +6M
Jahre:    1J, 3J, 5J, 10J -1J -3J -5J -10J +1J +3J +5J +10J
Nutze für die Darstellung ... ?
Originaldaten oder Mittelwerte auf ...
Stundenbasis Tagesbasis Wochenbasis
Monatsbasis Jahresbasis      Datenbasis: Original-Daten
Darstellen als:
Statistik (Auto) Statistik J:M      Darstellung:
Zur Graphik,    zurück zur Übersicht aller Sensoren.
 
Tabellarische Datenbersicht: ?
 
Sensor: Nr:Datum:Temp:Abs-Feuchte:Windchill:Wind:
Aussen-T/F 1 01-12-2009 00:00:02 5.5 C 6.18 g/m*3 5.5 C 0 km/h
2 01-12-2009 00:12:01 5.6 C 6.15 g/m*3 5.6 C 0 km/h
3 01-12-2009 00:24:01 5.6 C 6.15 g/m*3 5.6 C 0 km/h
4 01-12-2009 00:36:02 5.6 C 6.15 g/m*3 5.6 C 0 km/h
5 01-12-2009 00:48:02 5.6 C 6.15 g/m*3 5.6 C 0 km/h
6 01-12-2009 01:00:02 5.5 C 6.11 g/m*3 5.5 C 0 km/h
7 01-12-2009 01:12:02 5.5 C 6.11 g/m*3 5.5 C 0 km/h
8 01-12-2009 01:24:02 5.5 C 6.11 g/m*3 5.5 C 0 km/h
9 01-12-2009 01:36:02 5.5 C 6.11 g/m*3 5.5 C 0 km/h
10 01-12-2009 01:48:02 5.4 C 6.07 g/m*3 5.4 C 0 km/h
11 01-12-2009 02:00:02 5.4 C 6.14 g/m*3 5.4 C 0 km/h
12 01-12-2009 02:12:02 5.4 C 6.14 g/m*3 5.4 C 0 km/h
13 01-12-2009 02:24:02 5.4 C 6.14 g/m*3 5.4 C 0 km/h
14 01-12-2009 02:36:02 5.4 C 6.07 g/m*3 5.4 C 0 km/h
15 01-12-2009 02:48:01 5.4 C 6.07 g/m*3 5.4 C 0 km/h
16 01-12-2009 03:00:01 5.3 C 6.03 g/m*3 5.3 C 0 km/h
17 01-12-2009 03:12:01 5.3 C 5.96 g/m*3 5.3 C 0 km/h
18 01-12-2009 03:24:02 5.3 C 5.89 g/m*3 5.3 C 0 km/h
19 01-12-2009 03:36:01 5.3 C 5.89 g/m*3 5.3 C 0 km/h
20 01-12-2009 03:48:01 5.2 C 5.78 g/m*3 5.2 C 0 km/h
21 01-12-2009 04:00:01 5 C 5.71 g/m*3 5 C 0 km/h
22 01-12-2009 04:12:02 4.9 C 5.81 g/m*3 4.9 C 0 km/h
23 01-12-2009 04:24:01 4.8 C 5.77 g/m*3 4.8 C 0 km/h
24 01-12-2009 04:36:01 4.7 C 5.73 g/m*3 4.7 C 0 km/h
25 01-12-2009 04:48:01 4.7 C 5.73 g/m*3 4.7 C 0 km/h
Sensor: Nr:Datum:Temp:Abs-Feuchte:Windchill:Wind:
Aussen-T/F 26 01-12-2009 05:00:01 4.9 C 5.87 g/m*3 4.9 C 0 km/h
27 01-12-2009 05:12:02 4.9 C 5.94 g/m*3 4.9 C 0 km/h
28 01-12-2009 05:24:01 5 C 5.91 g/m*3 5 C 0 km/h
29 01-12-2009 05:36:01 5 C 5.91 g/m*3 5 C 0 km/h
30 01-12-2009 05:48:01 5 C 5.91 g/m*3 5 C 0 km/h
31 01-12-2009 06:00:01 5.1 C 5.95 g/m*3 5.1 C 0 km/h
32 01-12-2009 06:12:01 5.1 C 5.95 g/m*3 5.1 C 0 km/h
33 01-12-2009 06:24:02 5.1 C 5.95 g/m*3 5.1 C 0 km/h
34 01-12-2009 06:36:01 5 C 5.91 g/m*3 5 C 0 km/h
35 01-12-2009 06:48:02 5 C 5.91 g/m*3 5 C 0 km/h
36 01-12-2009 07:00:02 5 C 5.91 g/m*3 5 C 0 km/h
37 01-12-2009 07:12:01 5 C 5.98 g/m*3 5 C 0 km/h
38 01-12-2009 07:24:02 5 C 5.98 g/m*3 5 C 0 km/h
39 01-12-2009 07:36:01 5 C 5.98 g/m*3 5 C 0 km/h
40 01-12-2009 07:48:02 4.9 C 5.94 g/m*3 4.9 C 0 km/h
41 01-12-2009 08:00:02 4.8 C 5.9 g/m*3 4.8 C 0 km/h
42 01-12-2009 08:12:01 4.8 C 5.9 g/m*3 4.8 C 0 km/h
43 01-12-2009 08:24:01 4.8 C 5.97 g/m*3 4.8 C 0 km/h
44 01-12-2009 08:36:01 4.9 C 6.01 g/m*3 4.9 C 0 km/h
45 01-12-2009 08:48:02 4.9 C 6.01 g/m*3 4.9 C 0 km/h
46 01-12-2009 09:00:02 5 C 5.98 g/m*3 5 C 0 km/h
47 01-12-2009 09:12:01 5.1 C 6.02 g/m*3 5.1 C 0 km/h
48 01-12-2009 09:24:01 5.2 C 6.06 g/m*3 5.2 C 0 km/h
49 01-12-2009 09:36:02 5.3 C 6.1 g/m*3 5.3 C 0 km/h
50 01-12-2009 09:48:01 5.4 C 6.14 g/m*3 5.4 C 0 km/h
Sensor: Nr:Datum:Temp:Abs-Feuchte:Windchill:Wind:
Aussen-T/F 51 01-12-2009 10:00:01 5.5 C 6.11 g/m*3 5.5 C 0 km/h
52 01-12-2009 10:12:02 5.6 C 6.15 g/m*3 5.6 C 0 km/h
53 01-12-2009 10:24:01 5.7 C 6.12 g/m*3 5.7 C 0 km/h
54 01-12-2009 10:36:02 5.7 C 6.12 g/m*3 5.7 C 0 km/h
55 01-12-2009 10:48:01 5.8 C 6.09 g/m*3 5.8 C 0 km/h
56 01-12-2009 11:00:01 6.1 C 6.06 g/m*3 6.1 C 0 km/h
57 01-12-2009 11:12:02 6.3 C 6.07 g/m*3 6.3 C 0 km/h
58 01-12-2009 11:24:01 6.3 C 6 g/m*3 6.3 C 0 km/h
59 01-12-2009 11:36:01 6.4 C 6.04 g/m*3 6.4 C 0 km/h
60 01-12-2009 11:48:01 6.6 C 5.96 g/m*3 6.6 C 0 km/h
61 01-12-2009 12:00:01 6.7 C 5.85 g/m*3 6.7 C 0 km/h
62 01-12-2009 12:12:01 6.8 C 5.89 g/m*3 6.8 C 0 km/h
63 01-12-2009 12:24:01 6.8 C 5.81 g/m*3 6.8 C 0 km/h
64 01-12-2009 12:36:01 6.9 C 5.85 g/m*3 6.9 C 0 km/h
65 01-12-2009 12:48:01 6.9 C 5.77 g/m*3 6.9 C 0 km/h
66 01-12-2009 13:00:01 6.9 C 5.77 g/m*3 6.9 C 0 km/h
67 01-12-2009 13:12:01 6.9 C 5.77 g/m*3 6.9 C 0 km/h
68 01-12-2009 13:24:02 6.9 C 5.77 g/m*3 6.9 C 0 km/h
69 01-12-2009 13:36:01 6.9 C 5.7 g/m*3 6.9 C 0 km/h
70 01-12-2009 13:48:02 6.9 C 5.77 g/m*3 6.9 C 0 km/h
71 01-12-2009 14:00:02 6.8 C 5.74 g/m*3 6.8 C 0 km/h
72 01-12-2009 14:12:01 6.8 C 5.81 g/m*3 6.8 C 0 km/h
73 01-12-2009 14:24:02 6.8 C 5.74 g/m*3 6.8 C 0 km/h
74 01-12-2009 14:36:01 6.8 C 5.81 g/m*3 6.8 C 0 km/h
75 01-12-2009 14:48:02 6.8 C 5.81 g/m*3 6.8 C 0 km/h
Sensor: Nr:Datum:Temp:Abs-Feuchte:Windchill:Wind:
Aussen-T/F 76 01-12-2009 15:00:02 6.7 C 5.85 g/m*3 6.7 C 0 km/h
77 01-12-2009 15:12:01 6.6 C 5.89 g/m*3 6.6 C 0 km/h
78 01-12-2009 15:24:01 6.6 C 5.89 g/m*3 6.6 C 0 km/h
79 01-12-2009 15:36:01 6.5 C 5.85 g/m*3 6.5 C 0 km/h
80 01-12-2009 15:48:02 6.5 C 5.85 g/m*3 6.5 C 0 km/h
81 01-12-2009 16:00:02 6.4 C 5.81 g/m*3 6.4 C 0 km/h
82 01-12-2009 16:12:01 6.3 C 5.85 g/m*3 6.3 C 0 km/h
83 01-12-2009 16:24:01 6.2 C 5.81 g/m*3 6.2 C 0 km/h
84 01-12-2009 16:36:02 6.1 C 5.77 g/m*3 6.1 C 0 km/h
85 01-12-2009 16:48:01 6 C 5.81 g/m*3 6 C 0 km/h
86 01-12-2009 17:00:01 5.9 C 5.84 g/m*3 5.9 C 0 km/h
87 01-12-2009 17:12:02 5.9 C 5.84 g/m*3 5.9 C 0 km/h
88 01-12-2009 17:24:01 5.9 C 5.84 g/m*3 5.9 C 0 km/h
89 01-12-2009 17:36:02 5.8 C 5.87 g/m*3 5.8 C 0 km/h
90 01-12-2009 17:48:01 5.8 C 5.87 g/m*3 5.8 C 0 km/h
91 01-12-2009 18:00:01 5.8 C 5.87 g/m*3 5.8 C 0 km/h
92 01-12-2009 18:12:02 5.7 C 5.91 g/m*3 5.7 C 0 km/h
93 01-12-2009 18:24:01 5.8 C 5.95 g/m*3 5.8 C 0 km/h
94 01-12-2009 18:36:02 5.7 C 5.91 g/m*3 5.7 C 0 km/h
95 01-12-2009 18:48:02 5.7 C 5.91 g/m*3 5.7 C 0 km/h
96 01-12-2009 19:00:02 5.7 C 5.91 g/m*3 5.7 C 0 km/h
97 01-12-2009 19:12:01 5.6 C 5.87 g/m*3 5.6 C 0 km/h
98 01-12-2009 19:24:02 5.6 C 5.87 g/m*3 5.6 C 0 km/h
99 01-12-2009 19:36:01 5.6 C 5.87 g/m*3 5.6 C 0 km/h
100 01-12-2009 19:48:02 5.7 C 5.91 g/m*3 5.7 C 0 km/h
Sensor: Nr:Datum:Temp:Abs-Feuchte:Windchill:Wind:
Aussen-T/F 101 01-12-2009 20:00:02 5.6 C 5.87 g/m*3 5.6 C 0 km/h
102 01-12-2009 20:12:01 5.6 C 5.87 g/m*3 5.6 C 0 km/h
103 01-12-2009 20:24:02 5.5 C 5.83 g/m*3 5.5 C 0 km/h
104 01-12-2009 20:36:01 5.5 C 5.83 g/m*3 5.5 C 0 km/h
105 01-12-2009 20:48:02 5.5 C 5.83 g/m*3 5.5 C 0 km/h
106 01-12-2009 21:00:02 5.5 C 5.9 g/m*3 5.5 C 0 km/h
107 01-12-2009 21:12:01 5.5 C 5.9 g/m*3 5.5 C 0 km/h
108 01-12-2009 21:24:01 5.4 C 5.86 g/m*3 5.4 C 0 km/h
109 01-12-2009 21:36:02 5.4 C 5.86 g/m*3 5.4 C 0 km/h
110 01-12-2009 21:48:01 5.4 C 5.93 g/m*3 5.4 C 0 km/h
111 01-12-2009 22:00:01 5.6 C 6.01 g/m*3 5.6 C 0 km/h
112 01-12-2009 22:12:02 5.5 C 5.97 g/m*3 5.5 C 0 km/h
113 01-12-2009 22:25:05 5.4 C 5.93 g/m*3 5.4 C 0 km/h
114 01-12-2009 22:37:05 5.3 C 5.89 g/m*3 5.3 C 0 km/h
115 01-12-2009 22:49:05 5.3 C 5.89 g/m*3 5.3 C 0 km/h
116 01-12-2009 23:01:05 5.2 C 5.78 g/m*3 5.2 C 0 km/h
117 01-12-2009 23:13:05 5.2 C 5.78 g/m*3 5.2 C 0 km/h
118 01-12-2009 23:25:05 5.2 C 5.78 g/m*3 5.2 C 0 km/h
119 01-12-2009 23:37:05 5.2 C 5.78 g/m*3 5.2 C 0 km/h
120 01-12-2009 23:49:05 5.2 C 5.71 g/m*3 5.2 C 0 km/h
121 02-12-2009 00:01:06 5.2 C 5.65 g/m*3 5.2 C 0 km/h
122 02-12-2009 00:13:06 5.2 C 5.65 g/m*3 5.2 C 0 km/h
123 02-12-2009 00:25:06 5.2 C 5.58 g/m*3 5.2 C 0 km/h
124 02-12-2009 00:37:06 5.2 C 5.58 g/m*3 5.2 C 0 km/h
125 02-12-2009 00:49:06 5 C 5.44 g/m*3 5 C 0 km/h
Sensor: Nr:Datum:Temp:Abs-Feuchte:Windchill:Wind:
Aussen-T/F 126 02-12-2009 01:01:06 4.8 C 5.43 g/m*3 4.8 C 0 km/h
127 02-12-2009 01:13:06 4.7 C 5.46 g/m*3 4.7 C 0 km/h
128 02-12-2009 01:25:06 4.6 C 5.49 g/m*3 4.6 C 0 km/h
129 02-12-2009 01:37:06 4.5 C 5.52 g/m*3 4.5 C 0 km/h
130 02-12-2009 01:49:06 4.3 C 5.45 g/m*3 4.3 C 0 km/h
131 02-12-2009 02:01:06 4.4 C 5.55 g/m*3 4.4 C 0 km/h
132 02-12-2009 02:13:06 4.6 C 5.62 g/m*3 4.6 C 0 km/h
133 02-12-2009 02:25:06 4.7 C 5.66 g/m*3 4.7 C 0 km/h
134 02-12-2009 02:37:06 4.7 C 5.66 g/m*3 4.7 C 0 km/h
135 02-12-2009 02:49:06 4.8 C 5.77 g/m*3 4.8 C 0 km/h
136 02-12-2009 03:01:06 4.9 C 5.81 g/m*3 4.9 C 0 km/h
137 02-12-2009 03:13:06 4.7 C 5.73 g/m*3 4.7 C 0 km/h
138 02-12-2009 03:25:06 4.7 C 5.8 g/m*3 4.7 C 0 km/h
139 02-12-2009 03:37:06 4.8 C 5.83 g/m*3 4.8 C 0 km/h
140 02-12-2009 03:49:06 5 C 5.84 g/m*3 5 C 0 km/h
141 02-12-2009 04:01:07 4.9 C 5.87 g/m*3 4.9 C 0 km/h
142 02-12-2009 04:13:07 4.9 C 5.87 g/m*3 4.9 C 0 km/h
143 02-12-2009 04:25:07 4.9 C 5.87 g/m*3 4.9 C 0 km/h
144 02-12-2009 04:37:07 4.9 C 5.94 g/m*3 4.9 C 0 km/h
145 02-12-2009 04:49:07 5 C 5.91 g/m*3 5 C 0 km/h
146 02-12-2009 05:01:07 5 C 5.91 g/m*3 5 C 0 km/h
147 02-12-2009 05:13:07 5 C 5.91 g/m*3 5 C 0 km/h
148 02-12-2009 05:25:07 4.8 C 5.83 g/m*3 4.8 C 0 km/h
149 02-12-2009 05:37:07 4.8 C 5.83 g/m*3 4.8 C 0 km/h
150 02-12-2009 05:49:07 4.8 C 5.83 g/m*3 4.8 C 0 km/h
Sensor: Nr:Datum:Temp:Abs-Feuchte:Windchill:Wind:
Aussen-T/F 151 02-12-2009 06:01:05 4.8 C 5.83 g/m*3 4.8 C 0 km/h
152 02-12-2009 06:13:05 5 C 5.91 g/m*3 5 C 0 km/h
153 02-12-2009 06:25:05 4.9 C 5.87 g/m*3 4.9 C 0 km/h
154 02-12-2009 06:37:05 5 C 5.91 g/m*3 5 C 0 km/h
155 02-12-2009 06:49:01 5 C 5.91 g/m*3 5 C 0 km/h
156 02-12-2009 07:01:02 4.9 C 5.94 g/m*3 4.9 C 0 km/h
157 02-12-2009 07:13:02 5 C 5.91 g/m*3 5 C 0 km/h
158 02-12-2009 07:25:01 5.1 C 5.95 g/m*3 5.1 C 0 km/h
159 02-12-2009 07:37:01 5.2 C 5.99 g/m*3 5.2 C 0 km/h
160 02-12-2009 07:49:01 5.2 C 5.99 g/m*3 5.2 C 0 km/h
161 02-12-2009 08:01:01 4.8 C 5.83 g/m*3 4.8 C 0 km/h
162 02-12-2009 08:13:01 4.8 C 5.83 g/m*3 4.8 C 0 km/h
163 02-12-2009 08:25:02 4.6 C 5.82 g/m*3 4.6 C 0 km/h
164 02-12-2009 08:37:01 4.7 C 5.86 g/m*3 4.7 C 0 km/h
165 02-12-2009 08:49:02 4.7 C 5.8 g/m*3 4.7 C 0 km/h
166 02-12-2009 09:01:01 4.6 C 5.76 g/m*3 4.6 C 0 km/h
167 02-12-2009 09:13:01 4.6 C 5.76 g/m*3 4.6 C 0 km/h
168 02-12-2009 09:25:02 4.5 C 5.65 g/m*3 4.5 C 0 km/h
169 02-12-2009 09:37:01 4.5 C 5.65 g/m*3 4.5 C 0 km/h
170 02-12-2009 09:49:02 4.5 C 5.65 g/m*3 4.5 C 0 km/h
171 02-12-2009 10:01:02 4.7 C 5.66 g/m*3 4.7 C 0 km/h
172 02-12-2009 10:13:02 4.9 C 5.54 g/m*3 4.9 C 0 km/h
173 02-12-2009 10:25:02 5.2 C 5.23 g/m*3 5.2 C 0 km/h
174 02-12-2009 10:37:02 5.2 C 5.1 g/m*3 5.2 C 0 km/h
175 02-12-2009 10:49:02 5.2 C 5.03 g/m*3 5.2 C 0 km/h
Sensor: Nr:Datum:Temp:Abs-Feuchte:Windchill:Wind:
Aussen-T/F 176 02-12-2009 11:01:01 5.3 C 4.99 g/m*3 5.3 C 0 km/h
177 02-12-2009 11:13:01 5.5 C 5.06 g/m*3 5.5 C 0 km/h
178 02-12-2009 11:25:02 5.8 C 4.8 g/m*3 5.8 C 0 km/h
179 02-12-2009 11:37:02 5.7 C 4.84 g/m*3 5.7 C 0 km/h
180 02-12-2009 11:49:02 5.9 C 4.61 g/m*3 5.9 C 0 km/h
181 02-12-2009 12:01:02 6.2 C 4.41 g/m*3 6.2 C 0 km/h
182 02-12-2009 12:13:02 6.8 C 4.44 g/m*3 6.8 C 0 km/h
183 02-12-2009 12:25:02 7.2 C 4.32 g/m*3 7.2 C 0 km/h
184 02-12-2009 12:37:03 7.5 C 4.4 g/m*3 7.5 C 0 km/h
185 02-12-2009 12:49:02 7.6 C 4.27 g/m*3 7.6 C 0 km/h
186 02-12-2009 13:01:02 7.6 C 4.27 g/m*3 7.6 C 0 km/h
187 02-12-2009 13:13:02 7.7 C 4.3 g/m*3 7.7 C 0 km/h
188 02-12-2009 13:25:02 7.7 C 4.22 g/m*3 7.7 C 0 km/h
189 02-12-2009 13:37:02 7.9 C 4.35 g/m*3 7.9 C 0 km/h
190 02-12-2009 13:49:02 7.8 C 4.24 g/m*3 7.8 C 0 km/h
191 02-12-2009 14:01:02 8 C 4.38 g/m*3 8 C 0 km/h
192 02-12-2009 14:13:02 8 C 4.3 g/m*3 8 C 0 km/h
193 02-12-2009 14:25:02 7.8 C 4.24 g/m*3 7.8 C 0 km/h
194 02-12-2009 14:37:02 7.8 C 4.33 g/m*3 7.8 C 0 km/h
195 02-12-2009 14:49:02 7.8 C 4.33 g/m*3 7.8 C 0 km/h
196 02-12-2009 15:01:02 7.7 C 4.3 g/m*3 7.7 C 0 km/h
197 02-12-2009 15:13:02 7.7 C 4.38 g/m*3 7.7 C 0 km/h
198 02-12-2009 15:25:02 7.6 C 4.27 g/m*3 7.6 C 0 km/h
199 02-12-2009 15:37:02 7.6 C 4.19 g/m*3 7.6 C 0 km/h
200 02-12-2009 15:49:02 7.5 C 4.24 g/m*3 7.5 C 0 km/h
Sensor: Nr:Datum:Temp:Abs-Feuchte:Windchill:Wind:
Aussen-T/F 201 02-12-2009 16:01:02 7.4 C 4.21 g/m*3 7.4 C 0 km/h
202 02-12-2009 16:13:02 7.3 C 4.19 g/m*3 7.3 C 0 km/h
203 02-12-2009 16:25:02 7 C 4.26 g/m*3 7 C 0 km/h
204 02-12-2009 16:37:02 6.9 C 4.39 g/m*3 6.9 C 0 km/h
205 02-12-2009 16:49:02 6.8 C 4.44 g/m*3 6.8 C 0 km/h
206 02-12-2009 17:01:02 6.9 C 4.46 g/m*3 6.9 C 0 km/h
207 02-12-2009 17:13:02 6.8 C 4.51 g/m*3 6.8 C 0 km/h
208 02-12-2009 17:25:03 6.6 C 4.53 g/m*3 6.6 C 0 km/h
209 02-12-2009 17:37:02 6.5 C 4.5 g/m*3 6.5 C 0 km/h
210 02-12-2009 17:49:02 6.5 C 4.57 g/m*3 6.5 C 0 km/h
211 02-12-2009 18:01:02 6.5 C 4.65 g/m*3 6.5 C 0 km/h
212 02-12-2009 18:13:02 6.5 C 4.65 g/m*3 6.5 C 0 km/h
213 02-12-2009 18:25:02 6.4 C 4.62 g/m*3 6.4 C 0 km/h
214 02-12-2009 18:37:02 6.5 C 4.65 g/m*3 6.5 C 0 km/h
215 02-12-2009 18:49:02 6.4 C 4.69 g/m*3 6.4 C 0 km/h
216 02-12-2009 19:01:01 6.4 C 4.77 g/m*3 6.4 C 0 km/h
217 02-12-2009 19:13:01 6.5 C 4.8 g/m*3 6.5 C 0 km/h
218 02-12-2009 19:25:02 6.7 C 4.79 g/m*3 6.7 C 0 km/h
219 02-12-2009 19:37:01 6.6 C 4.83 g/m*3 6.6 C 0 km/h
220 02-12-2009 19:49:02 6.6 C 4.98 g/m*3 6.6 C 0 km/h
221 02-12-2009 20:01:01 6.4 C 4.99 g/m*3 6.4 C 0 km/h
222 02-12-2009 20:13:01 6.5 C 5.02 g/m*3 6.5 C 0 km/h
223 02-12-2009 20:25:01 6.6 C 5.06 g/m*3 6.6 C 0 km/h
224 02-12-2009 20:37:02 6.6 C 5.06 g/m*3 6.6 C 0 km/h
225 02-12-2009 20:49:02 6.7 C 5.09 g/m*3 6.7 C 0 km/h
Sensor: Nr:Datum:Temp:Abs-Feuchte:Windchill:Wind:
Aussen-T/F 226 02-12-2009 21:01:02 6.8 C 5.12 g/m*3 6.8 C 0 km/h
227 02-12-2009 21:13:02 6.9 C 5.16 g/m*3 6.9 C 0 km/h
228 02-12-2009 21:25:02 7 C 5.04 g/m*3 7 C 0 km/h
229 02-12-2009 21:37:02 6.9 C 5.08 g/m*3 6.9 C 0 km/h
230 02-12-2009 21:49:02 7 C 5.04 g/m*3 7 C 0 km/h
231 02-12-2009 22:01:02 7 C 5.11 g/m*3 7 C 0 km/h
232 02-12-2009 22:13:02 6.9 C 5.23 g/m*3 6.9 C 0 km/h
233 02-12-2009 22:26:02 7 C 5.19 g/m*3 7 C 0 km/h
234 02-12-2009 22:38:02 7 C 5.19 g/m*3 7 C 0 km/h
235 02-12-2009 22:50:02 6.9 C 5.31 g/m*3 6.9 C 0 km/h
236 02-12-2009 23:02:02 6.8 C 5.28 g/m*3 6.8 C 0 km/h
237 02-12-2009 23:14:02 6.7 C 5.32 g/m*3 6.7 C 0 km/h
238 02-12-2009 23:26:02 6.6 C 5.36 g/m*3 6.6 C 0 km/h
239 02-12-2009 23:38:02 6.4 C 5.36 g/m*3 6.4 C 0 km/h
240 02-12-2009 23:50:02 6.4 C 5.36 g/m*3 6.4 C 0 km/h
241 03-12-2009 00:02:03 6.6 C 5.44 g/m*3 6.6 C 0 km/h
242 03-12-2009 00:14:03 6.7 C 5.47 g/m*3 6.7 C 0 km/h
243 03-12-2009 00:26:03 6.8 C 5.51 g/m*3 6.8 C 0 km/h
244 03-12-2009 00:38:03 7 C 5.35 g/m*3 7 C 0 km/h
245 03-12-2009 00:50:03 7.1 C 5.3 g/m*3 7.1 C 0 km/h
246 03-12-2009 01:02:03 7.1 C 5.3 g/m*3 7.1 C 0 km/h
247 03-12-2009 01:14:03 7.2 C 5.34 g/m*3 7.2 C 0 km/h
248 03-12-2009 01:26:03 7.2 C 5.34 g/m*3 7.2 C 0 km/h
249 03-12-2009 01:38:03 7.1 C 5.3 g/m*3 7.1 C 0 km/h
250 03-12-2009 01:50:03 7 C 5.19 g/m*3 7 C 0 km/h
Sensor: Nr:Datum:Temp:Abs-Feuchte:Windchill:Wind:
Aussen-T/F 251 03-12-2009 02:02:03 7.1 C 5.23 g/m*3 7.1 C 0 km/h
252 03-12-2009 02:14:03 7.1 C 5.3 g/m*3 7.1 C 0 km/h
253 03-12-2009 02:26:03 7.2 C 5.26 g/m*3 7.2 C 0 km/h
254 03-12-2009 02:38:03 7.3 C 5.29 g/m*3 7.3 C 0 km/h
255 03-12-2009 02:50:03 7.5 C 5.28 g/m*3 7.5 C 0 km/h
256 03-12-2009 03:02:03 7.4 C 5.25 g/m*3 7.4 C 0 km/h
257 03-12-2009 03:14:03 7.4 C 5.41 g/m*3 7.4 C 0 km/h
258 03-12-2009 03:26:03 7.3 C 5.45 g/m*3 7.3 C 0 km/h
259 03-12-2009 03:38:03 7.5 C 5.68 g/m*3 7.5 C 0 km/h
260 03-12-2009 03:50:03 7.7 C 5.68 g/m*3 7.7 C 0 km/h
261 03-12-2009 04:02:03 7.8 C 5.79 g/m*3 7.8 C 0 km/h
262 03-12-2009 04:14:04 7.9 C 5.83 g/m*3 7.9 C 0 km/h
263 03-12-2009 04:26:04 8.1 C 5.82 g/m*3 8.1 C 0 km/h
264 03-12-2009 04:38:04 8.1 C 5.82 g/m*3 8.1 C 0 km/h
265 03-12-2009 04:50:04 7.8 C 5.96 g/m*3 7.8 C 0 km/h
266 03-12-2009 05:02:04 7.5 C 6.08 g/m*3 7.5 C 0 km/h
267 03-12-2009 05:14:04 7.3 C 6.24 g/m*3 7.3 C 0 km/h
268 03-12-2009 05:26:04 7.4 C 6.28 g/m*3 7.4 C 0 km/h
269 03-12-2009 05:38:04 7.6 C 6.36 g/m*3 7.6 C 0 km/h
270 03-12-2009 05:50:04 7.6 C 6.36 g/m*3 7.6 C 0 km/h
271 03-12-2009 06:02:04 7.8 C 6.45 g/m*3 7.8 C 0 km/h
272 03-12-2009 06:14:04 8 C 6.37 g/m*3 8 C 0 km/h
273 03-12-2009 06:26:04 7.9 C 6.32 g/m*3 7.9 C 0 km/h
274 03-12-2009 06:38:04 7.9 C 6.32 g/m*3 7.9 C 0 km/h
275 03-12-2009 06:50:04 7.7 C 6.24 g/m*3 7.7 C 0 km/h
Sensor: Nr:Datum:Temp:Abs-Feuchte:Windchill:Wind:
Aussen-T/F 276 03-12-2009 07:02:02 7.6 C 6.28 g/m*3 7.6 C 0 km/h
277 03-12-2009 07:14:02 7.5 C 6.24 g/m*3 7.5 C 0 km/h
278 03-12-2009 07:26:01 7.4 C 6.28 g/m*3 7.4 C 0 km/h
279 03-12-2009 07:38:02 7.5 C 6.32 g/m*3 7.5 C 0 km/h
280 03-12-2009 07:50:02 7.5 C 6.32 g/m*3 7.5 C 0 km/h
281 03-12-2009 08:02:02 7.6 C 6.2 g/m*3 7.6 C 0 km/h
282 03-12-2009 08:14:02 7.7 C 6.32 g/m*3 7.7 C 0 km/h
283 03-12-2009 08:26:02 7.7 C 6.32 g/m*3 7.7 C 0 km/h
284 03-12-2009 08:38:02 8 C 6.28 g/m*3 8 C 0 km/h
285 03-12-2009 08:50:02 8.2 C 6.2 g/m*3 8.2 C 0 km/h
286 03-12-2009 09:02:02 8.2 C 6.36 g/m*3 8.2 C 0 km/h
287 03-12-2009 09:14:02 7.9 C 6.41 g/m*3 7.9 C 0 km/h
288 03-12-2009 09:26:02 7.9 C 6.49 g/m*3 7.9 C 0 km/h
289 03-12-2009 09:38:02 8.1 C 6.49 g/m*3 8.1 C 0 km/h
290 03-12-2009 09:50:02 8.4 C 6.53 g/m*3 8.4 C 0 km/h
291 03-12-2009 10:02:02 8.5 C 6.49 g/m*3 8.5 C 0 km/h
292 03-12-2009 10:14:02 8.9 C 6.39 g/m*3 8.9 C 0 km/h
293 03-12-2009 10:26:02 9.2 C 6.43 g/m*3 9.2 C 0 km/h
294 03-12-2009 10:38:02 9.5 C 6.46 g/m*3 9.5 C 0 km/h
295 03-12-2009 10:50:02 9.6 C 6.41 g/m*3 9.6 C 0 km/h
296 03-12-2009 11:02:02 9.8 C 6.4 g/m*3 9.8 C 0 km/h
297 03-12-2009 11:14:02 10.1 C 6.34 g/m*3 10.1 C 0 km/h
298 03-12-2009 11:26:02 10.3 C 6.42 g/m*3 10.3 C 0 km/h
299 03-12-2009 11:38:02 10.3 C 6.32 g/m*3 10.3 C 0 km/h
300 03-12-2009 11:50:02 10 C 6.2 g/m*3 10 C 0 km/h
Sensor: Nr:Datum:Temp:Abs-Feuchte:Windchill:Wind:
Aussen-T/F 301 03-12-2009 12:02:01 10 C 6.2 g/m*3 10 C 0 km/h
302 03-12-2009 12:14:01 10.3 C 6.22 g/m*3 10.3 C 0 km/h
303 03-12-2009 12:26:02 10.5 C 6.21 g/m*3 10.5 C 0 km/h
304 03-12-2009 12:38:01 10.6 C 6.25 g/m*3 10.6 C 0 km/h
305 03-12-2009 12:50:02 10.5 C 6.21 g/m*3 10.5 C 0 km/h
306 03-12-2009 13:02:01 10.4 C 6.17 g/m*3 10.4 C 0 km/h
307 03-12-2009 13:14:01 10.6 C 6.25 g/m*3 10.6 C 0 km/h
308 03-12-2009 13:26:01 10.6 C 6.15 g/m*3 10.6 C 0 km/h
309 03-12-2009 13:38:02 10.5 C 6.21 g/m*3 10.5 C 0 km/h
310 03-12-2009 13:50:02 10.6 C 6.15 g/m*3 10.6 C 0 km/h
311 03-12-2009 14:02:02 10.4 C 6.17 g/m*3 10.4 C 0 km/h
312 03-12-2009 14:14:02 10.6 C 6.15 g/m*3 10.6 C 0 km/h
313 03-12-2009 14:26:02 10.6 C 6.15 g/m*3 10.6 C 0 km/h
314 03-12-2009 14:38:02 10.4 C 6.07 g/m*3 10.4 C 0 km/h
315 03-12-2009 14:50:01 10.3 C 6.13 g/m*3 10.3 C 0 km/h
316 03-12-2009 15:02:02 9.9 C 6.35 g/m*3 9.9 C 0 km/h
317 03-12-2009 15:14:02 9.9 C 6.35 g/m*3 9.9 C 0 km/h
318 03-12-2009 15:26:01 9.8 C 6.31 g/m*3 9.8 C 0 km/h
319 03-12-2009 15:38:02 9.6 C 6.23 g/m*3 9.6 C 0 km/h
320 03-12-2009 15:50:02 9.4 C 6.24 g/m*3 9.4 C 0 km/h
321 03-12-2009 16:02:02 9.3 C 6.2 g/m*3 9.3 C 0 km/h
322 03-12-2009 16:14:02 9.3 C 6.2 g/m*3 9.3 C 0 km/h
323 03-12-2009 16:26:01 9.4 C 6.15 g/m*3 9.4 C 0 km/h
324 03-12-2009 16:38:02 9.4 C 6.15 g/m*3 9.4 C 0 km/h
325 03-12-2009 16:50:02 9.5 C 6.19 g/m*3 9.5 C 0 km/h
Sensor: Nr:Datum:Temp:Abs-Feuchte:Windchill:Wind:
Aussen-T/F 326 03-12-2009 17:02:02 9.2 C 6.16 g/m*3 9.2 C 0 km/h
327 03-12-2009 17:14:02 9.4 C 6.15 g/m*3 9.4 C 0 km/h
328 03-12-2009 17:26:01 9.5 C 6.19 g/m*3 9.5 C 0 km/h
329 03-12-2009 17:38:02 9.5 C 6.19 g/m*3 9.5 C 0 km/h
330 03-12-2009 17:50:02 8.9 C 6.31 g/m*3 8.9 C 0 km/h
331 03-12-2009 18:02:02 8.5 C 6.4 g/m*3 8.5 C 0 km/h
332 03-12-2009 18:14:02 8.7 C 6.49 g/m*3 8.7 C 0 km/h
333 03-12-2009 18:26:02 8.7 C 6.49 g/m*3 8.7 C 0 km/h
334 03-12-2009 18:38:02 8.8 C 6.53 g/m*3 8.8 C 0 km/h
335 03-12-2009 18:50:02 8.9 C 6.48 g/m*3 8.9 C 0 km/h
336 03-12-2009 19:02:02 8.9 C 6.48 g/m*3 8.9 C 0 km/h
337 03-12-2009 19:14:02 8.7 C 6.31 g/m*3 8.7 C 0 km/h
338 03-12-2009 19:26:02 9.1 C 6.21 g/m*3 9.1 C 0 km/h
339 03-12-2009 19:38:02 9.4 C 6.15 g/m*3 9.4 C 0 km/h
340 03-12-2009 19:50:02 9.3 C 6.02 g/m*3 9.3 C 0 km/h
341 03-12-2009 20:02:01 9.2 C 5.98 g/m*3 9.2 C 0 km/h
342 03-12-2009 20:14:01 9.2 C 5.98 g/m*3 9.2 C 0 km/h
343 03-12-2009 20:26:02 9.1 C 5.94 g/m*3 9.1 C 0 km/h
344 03-12-2009 20:38:01 9.2 C 5.98 g/m*3 9.2 C 0 km/h
345 03-12-2009 20:50:02 9 C 5.91 g/m*3 9 C 0 km/h
346 03-12-2009 21:02:01 8.8 C 5.92 g/m*3 8.8 C 0 km/h
347 03-12-2009 21:14:01 8.9 C 5.96 g/m*3 8.9 C 0 km/h
348 03-12-2009 21:26:02 8.6 C 5.93 g/m*3 8.6 C 0 km/h
349 03-12-2009 21:38:01 8.3 C 5.9 g/m*3 8.3 C 0 km/h
350 03-12-2009 21:51:03 8.3 C 5.98 g/m*3 8.3 C 0 km/h
Sensor: Nr:Datum:Temp:Abs-Feuchte:Windchill:Wind:
Aussen-T/F 351 03-12-2009 22:03:03 8.5 C 6.06 g/m*3 8.5 C 0 km/h
352 03-12-2009 22:15:03 8.2 C 5.95 g/m*3 8.2 C 0 km/h
353 03-12-2009 22:27:03 8.2 C 6.03 g/m*3 8.2 C 0 km/h
354 03-12-2009 22:39:03 8.5 C 6.06 g/m*3 8.5 C 0 km/h
355 03-12-2009 22:51:03 8 C 6.04 g/m*3 8 C 0 km/h
356 03-12-2009 23:03:03 7 C 6.04 g/m*3 7 C 0 km/h
357 03-12-2009 23:15:03 6.8 C 6.12 g/m*3 6.8 C 0 km/h
358 03-12-2009 23:27:03 6.6 C 6.11 g/m*3 6.6 C 0 km/h
359 03-12-2009 23:39:03 6.5 C 5.92 g/m*3 6.5 C 0 km/h
360 03-12-2009 23:51:03 6.5 C 5.77 g/m*3 6.5 C 0 km/h
361 04-12-2009 00:03:03 6.6 C 5.51 g/m*3 6.6 C 0 km/h
362 04-12-2009 00:15:03 6.7 C 5.47 g/m*3 6.7 C 0 km/h
363 04-12-2009 00:27:03 6.8 C 5.43 g/m*3 6.8 C 0 km/h
364 04-12-2009 00:39:03 6.7 C 5.32 g/m*3 6.7 C 0 km/h
365 04-12-2009 00:51:03 6.6 C 5.28 g/m*3 6.6 C 0 km/h
366 04-12-2009 01:03:03 6.4 C 5.22 g/m*3 6.4 C 0 km/h
367 04-12-2009 01:15:03 6.2 C 5.22 g/m*3 6.2 C 0 km/h
368 04-12-2009 01:27:03 6.3 C 5.26 g/m*3 6.3 C 0 km/h
369 04-12-2009 01:39:03 6.2 C 5.07 g/m*3 6.2 C 0 km/h
370 04-12-2009 01:51:03 6.2 C 4.71 g/m*3 6.2 C 0 km/h
371 04-12-2009 02:03:04 6.2 C 4.78 g/m*3 6.2 C 0 km/h
372 04-12-2009 02:15:04 6.2 C 5 g/m*3 6.2 C 0 km/h
373 04-12-2009 02:27:04 5.6 C 5.16 g/m*3 5.6 C 0 km/h
374 04-12-2009 02:39:04 5.6 C 5.23 g/m*3 5.6 C 0 km/h
375 04-12-2009 02:51:04 5.6 C 5.16 g/m*3 5.6 C 0 km/h
Sensor: Nr:Datum:Temp:Abs-Feuchte:Windchill:Wind:
Aussen-T/F 376 04-12-2009 03:03:04 5.6 C 5.16 g/m*3 5.6 C 0 km/h
377 04-12-2009 03:15:04 5.5 C 5.2 g/m*3 5.5 C 0 km/h
378 04-12-2009 03:27:04 5.4 C 5.16 g/m*3 5.4 C 0 km/h
379 04-12-2009 03:39:04 5.4 C 5.16 g/m*3 5.4 C 0 km/h
380 04-12-2009 03:51:04 5.4 C 5.16 g/m*3 5.4 C 0 km/h
381 04-12-2009 04:03:04 5.5 C 5.2 g/m*3 5.5 C 0 km/h
382 04-12-2009 04:15:04 5.4 C 4.81 g/m*3 5.4 C 0 km/h
383 04-12-2009 04:27:04 5 C 4.62 g/m*3 5 C 0 km/h
384 04-12-2009 04:39:04 4.8 C 4.63 g/m*3 4.8 C 0 km/h
385 04-12-2009 04:51:04 4.6 C 4.5 g/m*3 4.6 C 0 km/h
386 04-12-2009 05:03:04 4.3 C 4.48 g/m*3 4.3 C 0 km/h
387 04-12-2009 05:15:04 4 C 4.51 g/m*3 4 C 0 km/h
388 04-12-2009 05:27:04 3.7 C 4.49 g/m*3 3.7 C 0 km/h
389 04-12-2009 05:39:04 3.4 C 4.52 g/m*3 3.4 C 0 km/h
390 04-12-2009 05:51:04 3.1 C 4.49 g/m*3 3.1 C 0 km/h
391 04-12-2009 06:03:04 3.2 C 4.64 g/m*3 3.2 C 0 km/h
392 04-12-2009 06:15:02 3.3 C 4.67 g/m*3 3.3 C 0 km/h
393 04-12-2009 06:27:02 3.1 C 4.61 g/m*3 3.1 C 0 km/h
394 04-12-2009 06:39:02 3.1 C 4.67 g/m*3 3.1 C 0 km/h
395 04-12-2009 06:51:02 3.4 C 4.76 g/m*3 3.4 C 0 km/h
396 04-12-2009 07:03:02 3.9 C 4.74 g/m*3 3.9 C 0 km/h
397 04-12-2009 07:15:03 4.1 C 4.61 g/m*3 4.1 C 0 km/h
398 04-12-2009 07:27:03 4.1 C 4.54 g/m*3 4.1 C 0 km/h
399 04-12-2009 07:39:02 3.4 C 4.46 g/m*3 3.4 C 0 km/h
400 04-12-2009 07:51:01 3.1 C 4.43 g/m*3 3.1 C 0 km/h
Sensor: Nr:Datum:Temp:Abs-Feuchte:Windchill:Wind:
Aussen-T/F 401 04-12-2009 08:03:01 2.8 C 4.46 g/m*3 2.8 C 0 km/h
402 04-12-2009 08:15:01 2.7 C 4.49 g/m*3 2.7 C 0 km/h
403 04-12-2009 08:27:01 3 C 4.58 g/m*3 3 C 0 km/h
404 04-12-2009 08:39:00 3.3 C 4.67 g/m*3 3.3 C 0 km/h
405 04-12-2009 08:51:03 3.6 C 4.7 g/m*3 3.6 C 0 km/h
406 04-12-2009 09:03:02 3.8 C 4.64 g/m*3 3.8 C 0 km/h
407 04-12-2009 09:15:02 3.9 C 4.61 g/m*3 3.9 C 0 km/h
408 04-12-2009 09:27:03 4.1 C 4.54 g/m*3 4.1 C 0 km/h
409 04-12-2009 09:39:02 4.2 C 4.45 g/m*3 4.2 C 0 km/h
410 04-12-2009 09:51:02 4.3 C 4.28 g/m*3 4.3 C 0 km/h
411 04-12-2009 10:03:01 4 C 4.13 g/m*3 4 C 0 km/h
412 04-12-2009 10:15:02 4 C 4.13 g/m*3 4 C 0 km/h
413 04-12-2009 10:27:02 4.1 C 4.16 g/m*3 4.1 C 0 km/h
414 04-12-2009 10:39:02 4.2 C 4.12 g/m*3 4.2 C 0 km/h
415 04-12-2009 10:51:02 4.2 C 4.12 g/m*3 4.2 C 0 km/h
416 04-12-2009 11:03:03 4.1 C 4.1 g/m*3 4.1 C 0 km/h
417 04-12-2009 11:15:02 4.1 C 4.1 g/m*3 4.1 C 0 km/h
418 04-12-2009 11:27:02 4.2 C 4.06 g/m*3 4.2 C 0 km/h
419 04-12-2009 11:39:02 4.1 C 4.1 g/m*3 4.1 C 0 km/h
420 04-12-2009 11:51:01 4.3 C 4.09 g/m*3 4.3 C 0 km/h
421 04-12-2009 12:03:02 4.6 C 4.17 g/m*3 4.6 C 0 km/h
422 04-12-2009 12:15:01 5.1 C 4.1 g/m*3 5.1 C 0 km/h
423 04-12-2009 12:27:01 5.4 C 4.12 g/m*3 5.4 C 0 km/h
424 04-12-2009 12:39:01 5.5 C 4.07 g/m*3 5.5 C 0 km/h
425 04-12-2009 12:51:01 5.7 C 4.2 g/m*3 5.7 C 0 km/h
Sensor: Nr:Datum:Temp:Abs-Feuchte:Windchill:Wind:
Aussen-T/F 426 04-12-2009 13:03:02 5.5 C 4 g/m*3 5.5 C 0 km/h
427 04-12-2009 13:15:01 5 C 3.87 g/m*3 5 C 0 km/h
428 04-12-2009 13:27:01 4.9 C 3.92 g/m*3 4.9 C 0 km/h
429 04-12-2009 13:39:02 4.9 C 3.85 g/m*3 4.9 C 0 km/h
430 04-12-2009 13:51:02 4.9 C 3.85 g/m*3 4.9 C 0 km/h
431 04-12-2009 14:03:02 4.8 C 3.82 g/m*3 4.8 C 0 km/h
432 04-12-2009 14:15:02 4.8 C 3.82 g/m*3 4.8 C 0 km/h
433 04-12-2009 14:27:02 4.9 C 3.78 g/m*3 4.9 C 0 km/h
434 04-12-2009 14:39:02 5.1 C 3.69 g/m*3 5.1 C 0 km/h
435 04-12-2009 14:51:02 4.9 C 3.71 g/m*3 4.9 C 0 km/h
436 04-12-2009 15:03:03 4.8 C 3.62 g/m*3 4.8 C 0 km/h
437 04-12-2009 15:15:02 4.7 C 3.6 g/m*3 4.7 C 0 km/h
438 04-12-2009 15:27:02 4.5 C 3.68 g/m*3 4.5 C 0 km/h
439 04-12-2009 15:39:03 4.7 C 3.66 g/m*3 4.7 C 0 km/h
440 04-12-2009 15:51:02 4.9 C 3.65 g/m*3 4.9 C 0 km/h
441 04-12-2009 16:03:02 4.9 C 3.78 g/m*3 4.9 C 0 km/h
442 04-12-2009 16:15:03 4.9 C 3.71 g/m*3 4.9 C 0 km/h
443 04-12-2009 16:27:03 4.9 C 3.78 g/m*3 4.9 C 0 km/h
444 04-12-2009 16:39:02 4.9 C 3.78 g/m*3 4.9 C 0 km/h
445 04-12-2009 16:51:03 4.8 C 3.82 g/m*3 4.8 C 0 km/h
446 04-12-2009 17:03:02 4.8 C 3.89 g/m*3 4.8 C 0 km/h
447 04-12-2009 17:15:03 4.7 C 3.93 g/m*3 4.7 C 0 km/h
448 04-12-2009 17:27:03 4.7 C 4 g/m*3 4.7 C 0 km/h
449 04-12-2009 17:39:02 4.7 C 4.06 g/m*3 4.7 C 0 km/h
450 04-12-2009 17:51:02 4.8 C 4.09 g/m*3 4.8 C 0 km/h
Sensor: Nr:Datum:Temp:Abs-Feuchte:Windchill:Wind:
Aussen-T/F 451 04-12-2009 18:03:02 4.8 C 4.09 g/m*3 4.8 C 0 km/h
452 04-12-2009 18:15:02 4.8 C 4.16 g/m*3 4.8 C 0 km/h
453 04-12-2009 18:27:02 4.7 C 4.2 g/m*3 4.7 C 0 km/h
454 04-12-2009 18:39:02 4.9 C 4.19 g/m*3 4.9 C 0 km/h
455 04-12-2009 18:51:02 5 C 4.08 g/m*3 5 C 0 km/h
456 04-12-2009 19:03:01 5 C 4.08 g/m*3 5 C 0 km/h
457 04-12-2009 19:15:02 5 C 4.08 g/m*3 5 C 0 km/h
458 04-12-2009 19:27:02 5 C 4.14 g/m*3 5 C 0 km/h
459 04-12-2009 19:39:02 5 C 4.14 g/m*3 5 C 0 km/h
460 04-12-2009 19:51:01 5.1 C 4.17 g/m*3 5.1 C 0 km/h
461 04-12-2009 20:03:02 5.1 C 4.17 g/m*3 5.1 C 0 km/h
462 04-12-2009 20:15:01 5 C 4.21 g/m*3 5 C 0 km/h
463 04-12-2009 20:27:01 5 C 4.21 g/m*3 5 C 0 km/h
464 04-12-2009 20:39:02 5 C 4.21 g/m*3 5 C 0 km/h
465 04-12-2009 20:51:02 5 C 4.28 g/m*3 5 C 0 km/h
466 04-12-2009 21:03:02 5 C 4.28 g/m*3 5 C 0 km/h
467 04-12-2009 21:15:01 5.1 C 4.31 g/m*3 5.1 C 0 km/h
468 04-12-2009 21:27:01 5.1 C 4.31 g/m*3 5.1 C 0 km/h
469 04-12-2009 21:39:02 5.2 C 4.34 g/m*3 5.2 C 0 km/h
470 04-12-2009 21:51:02 5.2 C 4.34 g/m*3 5.2 C 0 km/h
471 04-12-2009 22:04:03 5.2 C 4.34 g/m*3 5.2 C 0 km/h
472 04-12-2009 22:16:03 5.2 C 4.34 g/m*3 5.2 C 0 km/h
473 04-12-2009 22:28:03 5.1 C 4.31 g/m*3 5.1 C 0 km/h
474 04-12-2009 22:40:03 5.1 C 4.17 g/m*3 5.1 C 0 km/h
475 04-12-2009 22:52:03 5.1 C 4.17 g/m*3 5.1 C 0 km/h
Sensor: Nr:Datum:Temp:Abs-Feuchte:Windchill:Wind:
Aussen-T/F 476 04-12-2009 23:04:03 4.7 C 4.06 g/m*3 4.7 C 0 km/h
477 04-12-2009 23:16:03 4.1 C 4.03 g/m*3 4.1 C 0 km/h
478 04-12-2009 23:28:03 3.6 C 4.15 g/m*3 3.6 C 0 km/h
479 04-12-2009 23:40:03 3.2 C 4.16 g/m*3 3.2 C 0 km/h
480 04-12-2009 23:52:03 3 C 4.16 g/m*3 3 C 0 km/h
481 05-12-2009 00:04:03 2.7 C 4.2 g/m*3 2.7 C 0 km/h
482 05-12-2009 00:16:03 2.5 C 4.25 g/m*3 2.5 C 0 km/h
483 05-12-2009 00:28:03 2.3 C 4.2 g/m*3 2.3 C 0 km/h
484 05-12-2009 00:40:03 2.7 C 4.37 g/m*3 2.7 C 0 km/h
485 05-12-2009 00:52:03 3.2 C 4.4 g/m*3 3.2 C 0 km/h
486 05-12-2009 01:04:03 3.3 C 4.43 g/m*3 3.3 C 0 km/h
487 05-12-2009 01:16:03 2.9 C 4.25 g/m*3 2.9 C 0 km/h
488 05-12-2009 01:28:04 2.7 C 4.31 g/m*3 2.7 C 0 km/h
489 05-12-2009 01:40:04 2.8 C 4.4 g/m*3 2.8 C 0 km/h
490 05-12-2009 01:52:04 3.1 C 4.37 g/m*3 3.1 C 0 km/h
491 05-12-2009 02:04:04 2.9 C 4.31 g/m*3 2.9 C 0 km/h
492 05-12-2009 02:16:04 2.8 C 4.28 g/m*3 2.8 C 0 km/h
493 05-12-2009 02:28:04 2.8 C 4.28 g/m*3 2.8 C 0 km/h
494 05-12-2009 02:40:04 2.7 C 4.31 g/m*3 2.7 C 0 km/h
495 05-12-2009 02:52:04 2.7 C 4.31 g/m*3 2.7 C 0 km/h
496 05-12-2009 03:04:04 2.7 C 4.37 g/m*3 2.7 C 0 km/h
497 05-12-2009 03:16:04 3 C 4.34 g/m*3 3 C 0 km/h
498 05-12-2009 03:28:04 2.9 C 4.37 g/m*3 2.9 C 0 km/h
499 05-12-2009 03:40:04 3.2 C 4.4 g/m*3 3.2 C 0 km/h
500 05-12-2009 03:52:04 3.3 C 4.37 g/m*3 3.3 C 0 km/h
Sensor: Nr:Datum:Temp:Abs-Feuchte:Windchill:Wind:
Aussen-T/F 501 05-12-2009 04:04:04 3.3 C 4.37 g/m*3 3.3 C 0 km/h
502 05-12-2009 04:16:04 3.4 C 4.4 g/m*3 3.4 C 0 km/h
503 05-12-2009 04:28:04 3.4 C 4.34 g/m*3 3.4 C 0 km/h
504 05-12-2009 04:40:04 3.2 C 4.28 g/m*3 3.2 C 0 km/h
505 05-12-2009 04:52:04 3.2 C 4.34 g/m*3 3.2 C 0 km/h
506 05-12-2009 05:04:04 3.3 C 4.37 g/m*3 3.3 C 0 km/h
507 05-12-2009 05:16:05 3.3 C 4.31 g/m*3 3.3 C 0 km/h
508 05-12-2009 05:28:05 3.4 C 4.34 g/m*3 3.4 C 0 km/h
509 05-12-2009 05:40:05 3.4 C 4.34 g/m*3 3.4 C 0 km/h
510 05-12-2009 05:52:05 3.4 C 4.28 g/m*3 3.4 C 0 km/h
511 05-12-2009 06:04:05 3.4 C 4.28 g/m*3 3.4 C 0 km/h
512 05-12-2009 06:16:05 3.4 C 4.28 g/m*3 3.4 C 0 km/h
513 05-12-2009 06:28:05 3.5 C 4.24 g/m*3 3.5 C 0 km/h
514 05-12-2009 06:40:05 3.5 C 4.24 g/m*3 3.5 C 0 km/h
515 05-12-2009 06:52:05 3.5 C 4.24 g/m*3 3.5 C 0 km/h
516 05-12-2009 07:04:05 3.5 C 4.18 g/m*3 3.5 C 0 km/h
517 05-12-2009 07:16:05 3.7 C 4.18 g/m*3 3.7 C 0 km/h
518 05-12-2009 07:28:05 3.7 C 4.11 g/m*3 3.7 C 0 km/h
519 05-12-2009 07:40:02 3.8 C 4.08 g/m*3 3.8 C 0 km/h
520 05-12-2009 07:52:01 3.8 C 4.08 g/m*3 3.8 C 0 km/h
521 05-12-2009 08:04:01 3.9 C 4.11 g/m*3 3.9 C 0 km/h
522 05-12-2009 08:16:02 4 C 4.07 g/m*3 4 C 0 km/h
523 05-12-2009 08:28:02 4 C 4.01 g/m*3 4 C 0 km/h
524 05-12-2009 08:40:01 4.1 C 4.03 g/m*3 4.1 C 0 km/h
525 05-12-2009 08:52:03 4.1 C 4.03 g/m*3 4.1 C 0 km/h
Sensor: Nr:Datum:Temp:Abs-Feuchte:Windchill:Wind:
Aussen-T/F 526 05-12-2009 09:04:02 4.2 C 4.06 g/m*3 4.2 C 0 km/h
527 05-12-2009 09:16:02 4.2 C 4.12 g/m*3 4.2 C 0 km/h
528 05-12-2009 09:28:02 4.3 C 4.15 g/m*3 4.3 C 0 km/h
529 05-12-2009 09:40:02 4.4 C 4.11 g/m*3 4.4 C 0 km/h
530 05-12-2009 09:52:02 4.6 C 4.17 g/m*3 4.6 C 0 km/h
531 05-12-2009 10:04:02 4.7 C 4.13 g/m*3 4.7 C 0 km/h
532 05-12-2009 10:16:02 4.8 C 4.16 g/m*3 4.8 C 0 km/h
533 05-12-2009 10:28:03 5.1 C 4.17 g/m*3 5.1 C 0 km/h
534 05-12-2009 10:40:02 5.2 C 4.13 g/m*3 5.2 C 0 km/h
535 05-12-2009 10:52:02 5.3 C 4.23 g/m*3 5.3 C 0 km/h
536 05-12-2009 11:04:01 5.3 C 4.3 g/m*3 5.3 C 0 km/h
537 05-12-2009 11:16:02 5.2 C 4.54 g/m*3 5.2 C 0 km/h
538 05-12-2009 11:28:02 5.2 C 4.68 g/m*3 5.2 C 0 km/h
539 05-12-2009 11:40:02 5.6 C 4.81 g/m*3 5.6 C 0 km/h
540 05-12-2009 11:52:02 5.7 C 4.77 g/m*3 5.7 C 0 km/h
541 05-12-2009 12:04:02 6 C 4.79 g/m*3 6 C 0 km/h
542 05-12-2009 12:16:02 6.3 C 4.89 g/m*3 6.3 C 0 km/h
543 05-12-2009 12:28:02 6.2 C 4.93 g/m*3 6.2 C 0 km/h
544 05-12-2009 12:40:03 6.4 C 4.99 g/m*3 6.4 C 0 km/h
545 05-12-2009 12:52:02 6.4 C 5.07 g/m*3 6.4 C 0 km/h
546 05-12-2009 13:04:02 6.6 C 5.13 g/m*3 6.6 C 0 km/h
547 05-12-2009 13:16:01 6.8 C 5.2 g/m*3 6.8 C 0 km/h
548 05-12-2009 13:28:01 6.8 C 5.28 g/m*3 6.8 C 0 km/h
549 05-12-2009 13:40:02 6.9 C 5.31 g/m*3 6.9 C 0 km/h
550 05-12-2009 13:52:02 7 C 5.27 g/m*3 7 C 0 km/h
Sensor: Nr:Datum:Temp:Abs-Feuchte:Windchill:Wind:
Aussen-T/F 551 05-12-2009 14:04:02 7.4 C 5.33 g/m*3 7.4 C 0 km/h
552 05-12-2009 14:16:02 7.2 C 5.34 g/m*3 7.2 C 0 km/h
553 05-12-2009 14:28:02 7.1 C 5.46 g/m*3 7.1 C 0 km/h
554 05-12-2009 14:40:02 6.9 C 5.54 g/m*3 6.9 C 0 km/h
555 05-12-2009 14:52:02 6.9 C 5.62 g/m*3 6.9 C 0 km/h
556 05-12-2009 15:04:02 6.8 C 5.66 g/m*3 6.8 C 0 km/h
557 05-12-2009 15:16:02 6.6 C 5.66 g/m*3 6.6 C 0 km/h
558 05-12-2009 15:28:02 6.3 C 5.77 g/m*3 6.3 C 0 km/h
559 05-12-2009 15:40:02 6.3 C 5.85 g/m*3 6.3 C 0 km/h
560 05-12-2009 15:52:02 6.2 C 5.88 g/m*3 6.2 C 0 km/h
561 05-12-2009 16:04:02 6.2 C 5.96 g/m*3 6.2 C 0 km/h
562 05-12-2009 16:16:03 6.1 C 5.99 g/m*3 6.1 C 0 km/h
563 05-12-2009 16:28:03 6.1 C 6.06 g/m*3 6.1 C 0 km/h
564 05-12-2009 16:40:02 6.1 C 6.14 g/m*3 6.1 C 0 km/h
565 05-12-2009 16:52:02 6.2 C 6.18 g/m*3 6.2 C 0 km/h
566 05-12-2009 17:04:02 6.2 C 6.25 g/m*3 6.2 C 0 km/h
567 05-12-2009 17:16:03 6.4 C 6.33 g/m*3 6.4 C 0 km/h
568 05-12-2009 17:28:03 6.5 C 6.37 g/m*3 6.5 C 0 km/h
569 05-12-2009 17:40:02 6.7 C 6.38 g/m*3 6.7 C 0 km/h
570 05-12-2009 17:52:03 6.9 C 6.39 g/m*3 6.9 C 0 km/h
571 05-12-2009 18:04:02 7.1 C 6.24 g/m*3 7.1 C 0 km/h
572 05-12-2009 18:16:02 7.3 C 6.24 g/m*3 7.3 C 0 km/h
573 05-12-2009 18:28:02 7.3 C 6.24 g/m*3 7.3 C 0 km/h
574 05-12-2009 18:40:02 7.3 C 6.24 g/m*3 7.3 C 0 km/h
575 05-12-2009 18:52:02 7.3 C 6.32 g/m*3 7.3 C 0 km/h
Sensor: Nr:Datum:Temp:Abs-Feuchte:Windchill:Wind:
Aussen-T/F 576 05-12-2009 19:04:02 7.4 C 6.36 g/m*3 7.4 C 0 km/h
577 05-12-2009 19:16:02 7.3 C 6.32 g/m*3 7.3 C 0 km/h
578 05-12-2009 19:28:02 7.4 C 6.36 g/m*3 7.4 C 0 km/h
579 05-12-2009 19:40:02 7.4 C 6.36 g/m*3 7.4 C 0 km/h
580 05-12-2009 19:52:02 7.5 C 6.48 g/m*3 7.5 C 0 km/h
581 05-12-2009 20:04:01 7.6 C 6.61 g/m*3 7.6 C 0 km/h
582 05-12-2009 20:16:02 7.6 C 6.53 g/m*3 7.6 C 0 km/h
583 05-12-2009 20:28:02 7.6 C 6.61 g/m*3 7.6 C 0 km/h
584 05-12-2009 20:40:02 7.8 C 6.69 g/m*3 7.8 C 0 km/h
585 05-12-2009 20:52:02 7.8 C 6.69 g/m*3 7.8 C 0 km/h
586 05-12-2009 21:04:02 7.9 C 6.74 g/m*3 7.9 C 0 km/h
587 05-12-2009 21:16:02 7.9 C 6.74 g/m*3 7.9 C 0 km/h
588 05-12-2009 21:28:02 7.8 C 6.69 g/m*3 7.8 C 0 km/h
589 05-12-2009 21:40:03 7.9 C 6.82 g/m*3 7.9 C 0 km/h
590 05-12-2009 21:53:02 7.8 C 6.77 g/m*3 7.8 C 0 km/h
591 05-12-2009 22:05:02 7.8 C 6.77 g/m*3 7.8 C 0 km/h
592 05-12-2009 22:17:02 7.9 C 6.82 g/m*3 7.9 C 0 km/h
593 05-12-2009 22:29:02 7.9 C 6.82 g/m*3 7.9 C 0 km/h
594 05-12-2009 22:41:02 7.8 C 6.77 g/m*3 7.8 C 0 km/h
595 05-12-2009 22:53:02 7.9 C 6.82 g/m*3 7.9 C 0 km/h
596 05-12-2009 23:05:02 8 C 6.86 g/m*3 8 C 0 km/h
597 05-12-2009 23:17:03 8 C 6.86 g/m*3 8 C 0 km/h
598 05-12-2009 23:29:03 8.1 C 6.82 g/m*3 8.1 C 0 km/h
599 05-12-2009 23:41:03 8.2 C 6.95 g/m*3 8.2 C 0 km/h
600 05-12-2009 23:53:03 8.4 C 6.96 g/m*3 8.4 C 0 km/h
Sensor: Nr:Datum:Temp:Abs-Feuchte:Windchill:Wind:
Aussen-T/F 601 06-12-2009 00:05:03 8.6 C 7.05 g/m*3 8.6 C 0 km/h
602 06-12-2009 00:17:03 8.9 C 7.1 g/m*3 8.9 C 0 km/h
603 06-12-2009 00:29:03 9 C 6.96 g/m*3 9 C 0 km/h
604 06-12-2009 00:41:03 9.1 C 7.01 g/m*3 9.1 C 0 km/h
605 06-12-2009 00:53:03 9.2 C 7.05 g/m*3 9.2 C 0 km/h
606 06-12-2009 01:05:03 9.3 C 7.1 g/m*3 9.3 C 0 km/h
607 06-12-2009 01:17:03 9.4 C 7.15 g/m*3 9.4 C 0 km/h
608 06-12-2009 01:29:03 9.3 C 7.1 g/m*3 9.3 C 0 km/h
609 06-12-2009 01:41:03 9.5 C 7.19 g/m*3 9.5 C 0 km/h
610 06-12-2009 01:53:03 9.4 C 7.15 g/m*3 9.4 C 0 km/h
611 06-12-2009 02:05:03 9.5 C 7.19 g/m*3 9.5 C 0 km/h
612 06-12-2009 02:17:03 9.6 C 7.15 g/m*3 9.6 C 0 km/h
613 06-12-2009 02:29:03 9.6 C 7.15 g/m*3 9.6 C 0 km/h
614 06-12-2009 02:41:03 9.7 C 7.19 g/m*3 9.7 C 0 km/h
615 06-12-2009 02:53:03 9.8 C 7.14 g/m*3 9.8 C 0 km/h
616 06-12-2009 03:05:04 9.7 C 7.1 g/m*3 9.7 C 0 km/h
617 06-12-2009 03:17:04 10 C 7.05 g/m*3 10 C 0 km/h
618 06-12-2009 03:29:04 10 C 7.05 g/m*3 10 C 0 km/h
619 06-12-2009 03:41:04 9.9 C 7.19 g/m*3 9.9 C 0 km/h
620 06-12-2009 03:53:04 9.9 C 7.19 g/m*3 9.9 C 0 km/h
621 06-12-2009 04:05:04 10 C 7.14 g/m*3 10 C 0 km/h
622 06-12-2009 04:17:04 10 C 7.05 g/m*3 10 C 0 km/h
623 06-12-2009 04:29:04 10 C 7.14 g/m*3 10 C 0 km/h
624 06-12-2009 04:41:04 9.9 C 7.19 g/m*3 9.9 C 0 km/h
625 06-12-2009 04:53:04 9.7 C 7.19 g/m*3 9.7 C 0 km/h
Sensor: Nr:Datum:Temp:Abs-Feuchte:Windchill:Wind:
Aussen-T/F 626 06-12-2009 05:05:04 9.9 C 7.28 g/m*3 9.9 C 0 km/h
627 06-12-2009 05:17:04 10.2 C 7.23 g/m*3 10.2 C 0 km/h
628 06-12-2009 05:29:04 9.8 C 7.33 g/m*3 9.8 C 0 km/h
629 06-12-2009 05:41:04 9.4 C 7.33 g/m*3 9.4 C 0 km/h
630 06-12-2009 05:53:04 9.3 C 7.37 g/m*3 9.3 C 0 km/h
631 06-12-2009 06:05:04 9.4 C 7.42 g/m*3 9.4 C 0 km/h
632 06-12-2009 06:17:04 9.6 C 7.42 g/m*3 9.6 C 0 km/h
633 06-12-2009 06:29:04 9.2 C 7.41 g/m*3 9.2 C 0 km/h
634 06-12-2009 06:41:04 8.8 C 7.49 g/m*3 8.8 C 0 km/h
635 06-12-2009 06:53:05 8.9 C 7.71 g/m*3 8.9 C 0 km/h
636 06-12-2009 07:05:05 8.8 C 7.66 g/m*3 8.8 C 0 km/h
637 06-12-2009 07:17:05 8.6 C 7.56 g/m*3 8.6 C 0 km/h
638 06-12-2009 07:29:05 8.4 C 7.55 g/m*3 8.4 C 0 km/h
639 06-12-2009 07:41:02 8.4 C 7.55 g/m*3 8.4 C 0 km/h
640 06-12-2009 07:53:02 8.3 C 7.5 g/m*3 8.3 C 0 km/h
641 06-12-2009 08:05:03 8.2 C 7.54 g/m*3 8.2 C 0 km/h
642 06-12-2009 08:17:02 8.2 C 7.54 g/m*3 8.2 C 0 km/h
643 06-12-2009 08:29:02 8.2 C 7.62 g/m*3 8.2 C 0 km/h
644 06-12-2009 08:41:03 8.2 C 7.62 g/m*3 8.2 C 0 km/h
645 06-12-2009 08:53:02 8.2 C 7.62 g/m*3 8.2 C 0 km/h
646 06-12-2009 09:05:01 8.2 C 7.62 g/m*3 8.2 C 0 km/h
647 06-12-2009 09:17:02 8.4 C 7.72 g/m*3 8.4 C 0 km/h
648 06-12-2009 09:29:02 8.4 C 7.8 g/m*3 8.4 C 0 km/h
649 06-12-2009 09:41:02 8.6 C 7.91 g/m*3 8.6 C 0 km/h
650 06-12-2009 09:53:02 8.7 C 7.87 g/m*3 8.7 C 0 km/h
Sensor: Nr:Datum:Temp:Abs-Feuchte:Windchill:Wind:
Aussen-T/F 651 06-12-2009 10:05:02 8.8 C 7.83 g/m*3 8.8 C 0 km/h
652 06-12-2009 10:17:02 8.9 C 7.8 g/m*3 8.9 C 0 km/h
653 06-12-2009 10:29:02 9.2 C 7.86 g/m*3 9.2 C 0 km/h
654 06-12-2009 10:41:02 9.3 C 7.91 g/m*3 9.3 C 0 km/h
655 06-12-2009 10:53:02 9.6 C 8.06 g/m*3 9.6 C 0 km/h
656 06-12-2009 11:05:02 9.7 C 8.11 g/m*3 9.7 C 0 km/h
657 06-12-2009 11:17:02 9.8 C 8.07 g/m*3 9.8 C 0 km/h
658 06-12-2009 11:29:03 9.7 C 7.93 g/m*3 9.7 C 0 km/h
659 06-12-2009 11:41:02 9.8 C 7.89 g/m*3 9.8 C 0 km/h
660 06-12-2009 11:53:02 9.8 C 7.61 g/m*3 9.8 C 0 km/h
661 06-12-2009 12:05:02 10 C 7.52 g/m*3 10 C 0 km/h
662 06-12-2009 12:17:02 10.2 C 7.61 g/m*3 10.2 C 0 km/h
663 06-12-2009 12:29:03 10.2 C 7.71 g/m*3 10.2 C 0 km/h
664 06-12-2009 12:41:02 10.2 C 7.71 g/m*3 10.2 C 0 km/h
665 06-12-2009 12:53:02 10.2 C 7.8 g/m*3 10.2 C 0 km/h
666 06-12-2009 13:05:02 10.1 C 7.75 g/m*3 10.1 C 0 km/h
667 06-12-2009 13:17:01 10.3 C 7.57 g/m*3 10.3 C 0 km/h
668 06-12-2009 13:29:01 10.7 C 7.27 g/m*3 10.7 C 0 km/h
669 06-12-2009 13:41:02 10.9 C 6.96 g/m*3 10.9 C 0 km/h
670 06-12-2009 13:53:02 11.1 C 7.05 g/m*3 11.1 C 0 km/h
671 06-12-2009 14:05:02 11.6 C 7.17 g/m*3 11.6 C 0 km/h
672 06-12-2009 14:17:02 11.9 C 7.1 g/m*3 11.9 C 0 km/h
673 06-12-2009 14:29:02 12 C 6.93 g/m*3 12 C 0 km/h
674 06-12-2009 14:41:02 11.8 C 7.05 g/m*3 11.8 C 0 km/h
675 06-12-2009 14:53:01 11.6 C 7.17 g/m*3 11.6 C 0 km/h
Sensor: Nr:Datum:Temp:Abs-Feuchte:Windchill:Wind:
Aussen-T/F 676 06-12-2009 15:05:01 11.6 C 7.28 g/m*3 11.6 C 0 km/h
677 06-12-2009 15:17:02 11.4 C 7.29 g/m*3 11.4 C 0 km/h
678 06-12-2009 15:29:02 11.2 C 7.5 g/m*3 11.2 C 0 km/h
679 06-12-2009 15:41:01 11.1 C 7.45 g/m*3 11.1 C 0 km/h
680 06-12-2009 15:53:02 11.1 C 7.45 g/m*3 11.1 C 0 km/h
681 06-12-2009 16:05:02 11.2 C 7.4 g/m*3 11.2 C 0 km/h
682 06-12-2009 16:17:02 11.1 C 7.35 g/m*3 11.1 C 0 km/h
683 06-12-2009 16:29:02 11.1 C 7.35 g/m*3 11.1 C 0 km/h
684 06-12-2009 16:41:02 11.1 C 7.35 g/m*3 11.1 C 0 km/h
685 06-12-2009 16:53:01 11 C 7.41 g/m*3 11 C 0 km/h
686 06-12-2009 17:05:02 11 C 7.41 g/m*3 11 C 0 km/h
687 06-12-2009 17:17:02 10.9 C 7.46 g/m*3 10.9 C 0 km/h
688 06-12-2009 17:29:02 10.9 C 7.66 g/m*3 10.9 C 0 km/h
689 06-12-2009 17:41:01 11 C 7.71 g/m*3 11 C 0 km/h
690 06-12-2009 17:53:02 10.8 C 7.71 g/m*3 10.8 C 0 km/h
691 06-12-2009 18:05:07 11 C 7.71 g/m*3 11 C 0 km/h
692 06-12-2009 18:17:05 11 C 7.71 g/m*3 11 C 0 km/h
693 06-12-2009 18:29:05 11 C 7.71 g/m*3 11 C 0 km/h
694 06-12-2009 18:41:05 11 C 7.71 g/m*3 11 C 0 km/h
695 06-12-2009 18:53:05 11 C 7.71 g/m*3 11 C 0 km/h
696 06-12-2009 19:05:05 11.2 C 7.7 g/m*3 11.2 C 0 km/h
697 06-12-2009 19:17:06 11.4 C 7.8 g/m*3 11.4 C 0 km/h
698 06-12-2009 19:29:06 11.4 C 7.8 g/m*3 11.4 C 0 km/h
699 06-12-2009 19:41:06 11.4 C 7.9 g/m*3 11.4 C 0 km/h
700 06-12-2009 19:53:02 11 C 8.01 g/m*3 11 C 0 km/h
Sensor: Nr:Datum:Temp:Abs-Feuchte:Windchill:Wind:
Aussen-T/F 701 06-12-2009 20:05:02 11 C 8.31 g/m*3 11 C 0 km/h
702 06-12-2009 20:17:02 10.7 C 8.25 g/m*3 10.7 C 0 km/h
703 06-12-2009 20:29:02 10.6 C 8.2 g/m*3 10.6 C 0 km/h
704 06-12-2009 20:41:02 10.5 C 8.24 g/m*3 10.5 C 0 km/h
705 06-12-2009 20:53:02 10.4 C 8.19 g/m*3 10.4 C 0 km/h
706 06-12-2009 21:05:02 10.4 C 8.19 g/m*3 10.4 C 0 km/h
707 06-12-2009 21:17:02 10 C 7.99 g/m*3 10 C 0 km/h
708 06-12-2009 21:29:02 9.6 C 7.88 g/m*3 9.6 C 0 km/h
709 06-12-2009 21:41:02 9.3 C 7.82 g/m*3 9.3 C 0 km/h
710 06-12-2009 21:54:02 9.2 C 7.77 g/m*3 9.2 C 0 km/h
711 06-12-2009 22:06:02 9 C 7.76 g/m*3 9 C 0 km/h
712 06-12-2009 22:18:02 8.9 C 7.8 g/m*3 8.9 C 0 km/h
713 06-12-2009 22:30:03 8.9 C 7.88 g/m*3 8.9 C 0 km/h
714 06-12-2009 22:42:03 8.9 C 7.88 g/m*3 8.9 C 0 km/h
715 06-12-2009 22:54:03 8.6 C 7.65 g/m*3 8.6 C 0 km/h
716 06-12-2009 23:06:03 8.4 C 7.47 g/m*3 8.4 C 0 km/h
717 06-12-2009 23:18:03 8 C 7.19 g/m*3 8 C 0 km/h
718 06-12-2009 23:30:03 7.7 C 7.14 g/m*3 7.7 C 0 km/h
719 06-12-2009 23:42:03 7.6 C 6.93 g/m*3 7.6 C 0 km/h
720 06-12-2009 23:54:03 7.3 C 6.72 g/m*3 7.3 C 0 km/h

Legende:
   Min
   Max


Maximal/Minimal-Werte vom 01.12.2009 - 06.12.2009

Sensor Min Max Avg
Temp
(Aussen-T/F)
2.3 °C
05-12-2009  00:28:03
12 °C
06-12-2009  14:29:02
6.69 °C
Abs-Feuchte
(Aussen-T/F)
3.6 g/m*3
04-12-2009  15:15:02
8.31 g/m*3
06-12-2009  20:05:02
5.7 g/m*3
Windchill
(Aussen-T/F)
2.3 C
05-12-2009  00:28:03
12 C
06-12-2009  14:29:02
6.68 C

Die Daten stammen von einer Davis Vantage Pro 2 Wetter-Station und werden unter Linux mit der Software wview2wettercgi und aufbereitet. Alle Angaben erfolgen ohne Gewähr für ihre Vollständigkeit oder Richtigkeit.
Kontakt: Rainer Krienke krienke@uni-koblenz.de . Meine Webseiten an der Uni Koblenz oder privat.
Version: $Revision: 0.78 $